Time;durP1;ratioP1;P1;durP2;ratioP2;P2;SDS_P1;SDS_P2;PMS_P1;PMS_P2;Temp;Humidity;BMP_temperature;BMP_pressure;BME280_temperature;BME280_humidity;BME280_pressure;Samples;Min_cycle;Max_cycle;Signal;HPM_P1;HPM_P2
2021/05/24 00:01:11;;;;;;;2.78;1.98;;;359.00;2329.60;;;;;;4979338;28;20047;-75
2021/05/24 00:03:37;;;;;;;2.97;1.90;;;359.00;2329.60;;;;;;4974619;28;20004;-79
2021/05/24 00:06:03;;;;;;;4.20;2.15;;;359.10;2329.60;;;;;;4975810;29;20007;-79
2021/05/24 00:08:28;;;;;;;4.95;2.10;;;359.10;2329.60;;;;;;4979020;29;20079;-75
2021/05/24 00:10:54;;;;;;;3.55;1.85;;;359.20;2329.60;;;;;;4959681;29;20022;-75
2021/05/24 00:13:23;;;;;;;2.60;1.80;;;359.30;2329.60;;;;;;4959693;29;20091;-79
2021/05/24 00:15:52;;;;;;;4.40;1.83;;;359.20;2329.60;;;;;;4979926;28;20018;-79
2021/05/24 00:18:18;;;;;;;4.78;1.88;;;359.20;2329.60;;;;;;4975417;29;20031;-77
2021/05/24 00:20:54;;;;;;;4.03;1.80;;;359.30;2329.60;;;;;;4975609;29;20082;-76
2021/05/24 00:23:20;;;;;;;4.22;2.10;;;359.10;2329.60;;;;;;4976314;29;20113;-78
2021/05/24 00:25:47;;;;;;;2.47;1.90;;;359.10;2329.60;;;;;;4968754;29;20038;-75
2021/05/24 00:28:14;;;;;;;2.00;1.80;;;359.20;2329.60;;;;;;4974867;29;20023;-76
2021/05/24 00:31:07;;;;;;;3.70;2.13;;;359.00;2329.60;;;;;;4977789;29;20050;-79
2021/05/24 00:33:41;;;;;;;3.75;2.30;;;359.00;2329.60;;;;;;4954307;29;20185;-79
2021/05/24 00:36:07;;;;;;;6.25;2.70;;;359.00;2329.60;;;;;;4961317;29;20032;-75
2021/05/24 00:38:33;;;;;;;5.07;2.25;;;359.00;2329.60;;;;;;4978311;29;20031;-79
2021/05/24 00:40:59;;;;;;;3.10;2.10;;;359.00;2329.60;;;;;;4977088;29;20042;-78
2021/05/24 00:43:25;;;;;;;3.17;2.20;;;359.00;2329.60;;;;;;4959757;29;20057;-76
2021/05/24 00:45:50;;;;;;;4.25;1.90;;;358.90;2329.60;;;;;;4978124;29;20032;-77
2021/05/24 00:48:16;;;;;;;3.70;1.73;;;358.90;2329.60;;;;;;4972634;28;20075;-78
2021/05/24 00:50:42;;;;;;;2.47;1.95;;;358.90;2329.60;;;;;;4974256;29;20047;-78
2021/05/24 00:53:15;;;;;;;5.07;1.90;;;358.90;2329.60;;;;;;4980123;28;20050;-78
2021/05/24 00:55:42;;;;;;;4.85;1.98;;;358.60;2329.60;;;;;;4961780;29;20103;-79
2021/05/24 00:58:08;;;;;;;2.97;2.00;;;358.90;2329.60;;;;;;4970852;29;20038;-75
2021/05/24 01:01:01;;;;;;;3.88;2.00;;;358.90;2329.60;;;;;;4973924;28;20019;-76
2021/05/24 01:03:27;;;;;;;3.97;2.20;;;358.80;2329.60;;;;;;4966237;29;20039;-77
2021/05/24 01:05:53;;;;;;;2.17;1.80;;;358.80;2329.60;;;;;;4974809;28;20055;-77
2021/05/24 01:08:18;;;;;;;2.22;1.77;;;358.80;2329.60;;;;;;4973578;29;20027;-77
2021/05/24 01:10:45;;;;;;;4.43;1.90;;;358.80;2329.60;;;;;;4973256;28;20034;-76
2021/05/24 01:13:13;;;;;;;2.53;1.90;;;358.80;2329.60;;;;;;4972364;28;20054;-78
2021/05/24 01:15:40;;;;;;;3.17;1.95;;;358.70;2329.60;;;;;;4974941;29;20058;-75
2021/05/24 01:18:08;;;;;;;2.47;1.80;;;358.70;2329.60;;;;;;4977390;28;20023;-77
2021/05/24 01:20:33;;;;;;;3.63;1.92;;;358.70;2329.60;;;;;;4969341;29;20023;-78
2021/05/24 01:25:29;;;;;;;2.00;1.60;;;358.70;2329.60;;;;;;4971752;28;20416;-79
2021/05/24 01:27:55;;;;;;;2.70;1.90;;;358.70;2329.60;;;;;;4973919;29;20060;-75
2021/05/24 01:30:21;;;;;;;2.60;1.83;;;358.60;2329.60;;;;;;4971264;29;20087;-77
2021/05/24 01:32:50;;;;;;;3.38;1.88;;;358.70;2329.60;;;;;;4971751;28;20087;-77
2021/05/24 01:35:16;;;;;;;2.72;2.05;;;358.60;2329.60;;;;;;4967169;29;20035;-78
2021/05/24 01:37:42;;;;;;;2.92;2.00;;;358.60;2329.60;;;;;;4971545;29;20014;-77
2021/05/24 01:40:09;;;;;;;3.10;2.20;;;358.60;2329.60;;;;;;4979850;28;20082;-76
2021/05/24 01:42:34;;;;;;;3.58;2.03;;;358.60;2329.60;;;;;;4982917;28;20039;-75
2021/05/24 01:45:01;;;;;;;3.25;2.00;;;358.60;2329.60;;;;;;4978259;29;20034;-79
2021/05/24 01:47:26;;;;;;;5.05;2.00;;;358.60;2329.60;;;;;;4974436;29;20027;-78
2021/05/24 01:49:52;;;;;;;2.45;1.88;;;358.60;2329.60;;;;;;4968149;28;20081;-78
2021/05/24 01:52:22;;;;;;;5.28;2.00;;;358.60;2329.60;;;;;;4971637;29;20281;-79
2021/05/24 01:54:48;;;;;;;5.20;2.20;;;358.60;2329.60;;;;;;4948244;29;20099;-76
2021/05/24 01:57:15;;;;;;;3.17;2.00;;;358.50;2329.60;;;;;;4954366;29;20417;-78
2021/05/24 01:59:42;;;;;;;3.17;2.17;;;358.50;2329.60;;;;;;4962358;28;20070;-79
2021/05/24 02:02:08;;;;;;;4.43;1.92;;;358.50;2329.60;;;;;;4981259;28;20047;-77
2021/05/24 02:04:41;;;;;;;5.55;2.90;;;358.50;2329.60;;;;;;4957029;29;20488;-79
2021/05/24 02:07:07;;;;;;;6.95;2.70;;;358.40;2329.60;;;;;;4972895;29;20027;-79
2021/05/24 02:09:35;;;;;;;4.70;2.47;;;358.40;2329.60;;;;;;4964704;28;20102;-77
2021/05/24 02:12:01;;;;;;;2.75;2.00;;;333.70;2329.60;;;;;;4970376;29;20034;-76
2021/05/24 02:14:27;;;;;;;3.55;2.17;;;333.60;2329.60;;;;;;4965831;28;20031;-79
2021/05/24 02:16:54;;;;;;;3.63;1.92;;;333.70;2329.60;;;;;;4976099;29;20042;-78
2021/05/24 02:19:20;;;;;;;2.60;1.95;;;333.70;2329.60;;;;;;4971490;28;20050;-76
2021/05/24 02:21:49;;;;;;;4.63;2.20;;;333.60;2329.60;;;;;;4976921;29;20035;-78
2021/05/24 02:24:16;;;;;;;4.80;2.08;;;333.60;2329.60;;;;;;4960845;29;20095;-77
2021/05/24 02:26:43;;;;;;;5.28;2.55;;;333.50;2329.60;;;;;;4974634;29;20034;-79
2021/05/24 02:29:12;;;;;;;5.47;2.60;;;333.50;2329.60;;;;;;4974781;28;20042;-78
2021/05/24 02:31:41;;;;;;;5.40;2.38;;;333.50;2329.60;;;;;;4975969;29;20028;-75
2021/05/24 02:34:09;;;;;;;3.17;2.30;;;333.50;2329.60;;;;;;4971548;29;20023;-77
2021/05/24 02:36:36;;;;;;;5.55;2.20;;;333.50;2329.60;;;;;;4978933;28;20110;-77
2021/05/24 02:39:09;;;;;;;4.40;2.10;;;333.50;2329.60;;;;;;4956259;29;20051;-77
2021/05/24 02:41:38;;;;;;;9.43;2.30;;;333.50;2329.60;;;;;;4969982;28;20107;-77
2021/05/24 02:44:06;;;;;;;4.22;2.78;;;333.50;2329.60;;;;;;4960130;29;20027;-75
2021/05/24 02:46:43;;;;;;;4.93;2.58;;;333.40;2329.60;;;;;;4967402;29;20031;-75
2021/05/24 02:49:11;;;;;;;5.05;2.58;;;333.40;2329.60;;;;;;4939883;29;20863;-75
2021/05/24 02:51:38;;;;;;;2.95;2.00;;;333.40;2329.60;;;;;;4947391;28;20099;-78
2021/05/24 02:54:06;;;;;;;4.63;2.17;;;307.90;2304.00;;;;;;4960294;29;20039;-78
2021/05/24 02:56:33;;;;;;;4.35;2.20;;;333.40;2329.60;;;;;;4975129;29;20014;-78
2021/05/24 02:58:58;;;;;;;6.90;2.20;;;333.40;2329.60;;;;;;4962071;28;20007;-78
2021/05/24 03:01:26;;;;;;;4.30;2.10;;;333.40;2329.60;;;;;;4975742;29;20055;-78
2021/05/24 03:03:54;;;;;;;5.15;2.40;;;333.40;2329.60;;;;;;4977019;29;20022;-79
2021/05/24 03:06:21;;;;;;;3.30;2.10;;;333.40;2329.60;;;;;;4975570;29;20051;-78
2021/05/24 03:08:48;;;;;;;2.92;2.30;;;333.40;2329.60;;;;;;4960851;28;20007;-79
2021/05/24 03:11:14;;;;;;;2.63;2.03;;;333.40;2329.60;;;;;;4955582;29;20071;-79
2021/05/24 03:13:41;;;;;;;3.63;2.40;;;333.40;2329.60;;;;;;4961851;29;20039;-75
2021/05/24 03:16:07;;;;;;;10.60;3.17;;;333.50;2329.60;;;;;;4974644;29;20023;-78
2021/05/24 03:18:34;;;;;;;5.60;2.60;;;333.50;2329.60;;;;;;4969984;29;20524;-78
2021/05/24 03:21:00;;;;;;;8.63;2.95;;;333.50;2329.60;;;;;;4976897;28;20007;-79
2021/05/24 03:23:25;;;;;;;11.07;3.30;;;333.50;2329.60;;;;;;4970904;29;20114;-75
2021/05/24 03:25:51;;;;;;;9.27;2.85;;;333.50;2329.60;;;;;;4962549;28;20038;-76
2021/05/24 03:28:17;;;;;;;6.82;2.47;;;333.50;2329.60;;;;;;4974408;29;20027;-78
2021/05/24 03:30:43;;;;;;;7.40;2.50;;;333.50;2329.60;;;;;;4957981;29;20035;-77
2021/05/24 03:33:12;;;;;;;4.68;2.63;;;333.50;2329.60;;;;;;4972634;29;20031;-75
2021/05/24 03:35:38;;;;;;;5.57;2.75;;;333.50;2329.60;;;;;;4956488;29;20054;-76
2021/05/24 03:38:04;;;;;;;4.60;2.53;;;333.60;2329.60;;;;;;4970557;29;20031;-77
2021/05/24 03:40:30;;;;;;;9.93;2.50;;;333.60;2329.60;;;;;;4970693;29;20031;-75
2021/05/24 03:42:56;;;;;;;4.65;2.40;;;333.60;2329.60;;;;;;4956433;29;20015;-79
2021/05/24 03:45:22;;;;;;;4.28;2.20;;;333.60;2329.60;;;;;;4967263;28;20078;-78
2021/05/24 03:47:49;;;;;;;5.70;2.15;;;333.60;2329.60;;;;;;4954524;29;20035;-76
2021/05/24 03:50:17;;;;;;;7.78;2.70;;;333.60;2329.60;;;;;;4937944;29;20091;-76
2021/05/24 03:52:44;;;;;;;15.40;4.15;;;333.70;2329.60;;;;;;4948655;29;20031;-77
2021/05/24 03:55:17;;;;;;;7.25;2.65;;;333.70;2329.60;;;;;;4973523;29;20047;-76
2021/05/24 03:58:23;;;;;;;6.28;2.20;;;358.40;2329.60;;;;;;4952402;29;20015;-78
2021/05/24 04:00:49;;;;;;;4.22;2.25;;;358.40;2329.60;;;;;;4917229;29;20037;-79
2021/05/24 04:03:15;;;;;;;6.88;2.60;;;358.40;2329.60;;;;;;4894155;29;20044;-75
2021/05/24 04:05:42;;;;;;;7.30;3.10;;;358.40;2329.60;;;;;;4903149;29;20101;-79
2021/05/24 04:08:09;;;;;;;8.10;2.78;;;358.50;2329.60;;;;;;4898736;29;20032;-76
2021/05/24 04:10:58;;;;;;;8.45;3.33;;;358.50;2329.60;;;;;;4898305;29;20129;-76
2021/05/24 04:13:22;;;;;;;8.63;2.90;;;358.50;2329.60;;;;;;4899964;29;20037;-76
2021/05/24 04:15:50;;;;;;;4.78;2.47;;;358.70;2329.60;;;;;;4902479;29;20086;-75
2021/05/24 04:20:52;;;;;;;11.55;3.92;;;;;;;;;;5199445;23;20049;-77
2021/05/24 04:23:19;;;;;;;17.67;3.80;;;;;;;;;;4989584;28;20014;-77
2021/05/24 04:25:45;;;;;;;10.32;3.50;;;358.90;2329.60;;;;;;4964673;29;20035;-77
2021/05/24 04:28:11;;;;;;;11.10;3.80;;;358.90;2329.60;;;;;;4983841;28;20018;-76
2021/05/24 04:30:37;;;;;;;6.30;2.58;;;359.00;2329.60;;;;;;5059343;23;20058;-76
2021/05/24 04:33:03;;;;;;;6.03;2.60;;;359.00;2329.60;;;;;;4986580;28;20058;-76
2021/05/24 04:35:29;;;;;;;6.78;2.55;;;359.00;2329.60;;;;;;4988011;28;20039;-79
2021/05/24 04:37:55;;;;;;;5.07;2.50;;;359.10;2329.60;;;;;;5158393;23;20058;-77
2021/05/24 04:40:21;;;;;;;4.22;2.50;;;359.20;2329.60;;;;;;4997491;28;20033;-79
2021/05/24 04:42:50;;;;;;;9.27;3.08;;;359.30;2329.60;;;;;;5015580;28;20019;-80
2021/05/24 04:45:19;;;;;;;18.20;4.50;;;384.00;2329.60;;;;;;5007865;28;20035;-70
2021/05/24 04:47:47;;;;;;;11.25;3.78;;;384.00;2329.60;;;;;;5004915;28;20035;-73
2021/05/24 04:50:13;;;;;;;6.45;2.63;;;384.10;2329.60;;;;;;5000409;28;20035;-74
2021/05/24 04:52:39;;;;;;;7.38;2.65;;;384.20;2329.60;;;;;;5000065;28;20376;-70
2021/05/24 04:55:07;;;;;;;8.25;3.22;;;384.20;2329.60;;;;;;5015257;28;20444;-70
2021/05/24 04:57:32;;;;;;;9.50;2.97;;;384.30;2329.60;;;;;;5013507;28;20011;-74
2021/05/24 05:00:39;;;;;;;13.15;3.67;;;;;;;;;;5017365;28;20034;-76
2021/05/24 05:03:06;;;;;;;19.27;3.80;;;;;;;;;;4975182;29;20031;-77
2021/05/24 05:05:34;;;;;;;8.52;3.28;;;;;;;;;;4985267;28;20066;-78
2021/05/24 05:08:00;;;;;;;7.97;3.50;;;;;;;;;;4964095;28;20043;-76
2021/05/24 05:10:26;;;;;;;7.72;2.75;;;;;;;;;;4991307;28;20035;-77
2021/05/24 05:12:53;;;;;;;9.38;3.30;;;;;;;;;;4983894;28;20082;-73
2021/05/24 05:15:40;;;;;;;11.00;3.10;;;;;;;;;;4985283;28;20059;-74
2021/05/24 05:18:06;;;;;;;15.65;4.05;;;;;;;;;;4953813;28;20059;-71
2021/05/24 05:20:32;;;;;;;6.38;2.78;;;;;;;;;;4975857;28;20034;-71
2021/05/24 05:22:59;;;;;;;5.10;2.13;;;;;;;;;;4979394;28;20477;-71
2021/05/24 05:25:25;;;;;;;4.95;2.45;;;;;;;;;;4971019;28;20126;-72
2021/05/24 05:27:51;;;;;;;8.02;3.13;;;;;;;;;;4973744;28;20126;-74
2021/05/24 05:30:17;;;;;;;6.25;2.63;;;;;;;;;;4975550;28;20035;-71
2021/05/24 05:32:43;;;;;;;15.88;4.05;;;;;;;;;;4956332;28;20077;-71
2021/05/24 05:35:13;;;;;;;11.40;3.47;;;;;;;;;;4976343;28;20030;-74
2021/05/24 05:37:39;;;;;;;13.23;3.95;;;;;;;;;;4976676;28;20027;-77
2021/05/24 05:40:34;;;;;;;10.73;3.70;;;;;;;;;;4986186;28;20039;-76
2021/05/24 05:43:00;;;;;;;8.50;2.60;;;;;;;;;;4969438;28;20035;-77
2021/05/24 05:45:26;;;;;;;5.38;2.75;;;;;;;;;;4991561;28;20547;-71
2021/05/24 05:47:52;;;;;;;9.13;3.08;;;;;;;;;;4998848;28;20019;-72
2021/05/24 05:50:21;;;;;;;8.77;2.70;;;;;;;;;;4990411;28;20031;-76
2021/05/24 05:53:32;;;;;;;7.55;3.15;;;;;;;;;;4990188;28;20066;-77
2021/05/24 05:55:59;;;;;;;8.85;3.15;;;;;;;;;;4993635;28;20026;-71
2021/05/24 05:58:37;;;;;;;5.85;2.90;;;;;;;;;;5007262;28;20031;-71
2021/05/24 06:01:05;;;;;;;8.40;2.90;;;;;;;;;;4991799;28;20059;-77
2021/05/24 06:03:50;;;;;;;4.90;2.40;;;;;;;;;;5014420;28;20006;-76
2021/05/24 06:06:24;;;;;;;6.97;2.88;;;;;;;;;;4995671;28;20500;-71
2021/05/24 06:08:50;;;;;;;5.05;2.40;;;;;;;;;;5011828;28;20011;-77
2021/05/24 06:11:16;;;;;;;7.72;2.97;;;;;;;;;;4998695;28;20113;-78
2021/05/24 06:13:42;;;;;;;3.85;2.60;;;;;;;;;;4995527;28;20042;-78
2021/05/24 06:16:18;;;;;;;9.05;3.10;;;;;;;;;;4989214;28;20019;-75
2021/05/24 06:18:44;;;;;;;7.40;2.17;;;;;;;;;;4998608;28;20065;-75
2021/05/24 06:21:10;;;;;;;3.88;2.42;;;;;;;;;;4994796;28;20026;-73
2021/05/24 06:23:45;;;;;;;4.38;2.10;;;;;;;;;;4995136;28;20026;-73
2021/05/24 06:26:16;;;;;;;2.67;1.85;;;;;;;;;;4996476;28;20009;-73
2021/05/24 06:28:52;;;;;;;3.65;2.00;;;;;;;;;;4999419;28;20851;-77
2021/05/24 06:31:42;;;;;;;2.17;1.63;;;;;;;;;;5000819;28;20026;-83
2021/05/24 06:34:21;;;;;;;1.73;1.63;;;;;;;;;;4997673;28;20042;-73
2021/05/24 06:37:04;;;;;;;6.65;1.85;;;;;;;;;;4995212;28;20058;-75
2021/05/24 06:39:31;;;;;;;3.72;1.70;;;;;;;;;;4993172;28;20391;-74
2021/05/24 06:41:57;;;;;;;4.07;1.83;;;;;;;;;;4993462;28;20034;-78
2021/05/24 06:44:23;;;;;;;2.05;1.80;;;;;;;;;;4988729;28;20473;-72
2021/05/24 06:46:52;;;;;;;8.73;1.83;;;;;;;;;;4996697;28;20026;-75
2021/05/24 06:49:18;;;;;;;4.47;1.70;;;;;;;;;;4992321;28;20042;-76
2021/05/24 06:51:44;;;;;;;2.97;1.77;;;;;;;;;;4992015;28;20049;-72
2021/05/24 06:54:22;;;;;;;4.03;2.00;;;;;;;;;;5001844;28;20376;-78
2021/05/24 06:56:48;;;;;;;1.80;1.70;;;;;;;;;;5005053;28;20077;-75
2021/05/24 06:59:29;;;;;;;2.00;1.80;;;;;;;;;;5000807;28;20050;-76
2021/05/24 07:01:55;;;;;;;4.40;2.10;;;;;;;;;;4993179;28;20069;-74
2021/05/24 07:04:21;;;;;;;2.67;1.83;;;;;;;;;;4993805;28;20361;-74
2021/05/24 07:06:49;;;;;;;4.35;1.95;;;;;;;;;;4991802;28;20030;-69
2021/05/24 07:12:28;;;;;;;7.13;2.10;;;;;;;;;;4893646;29;20033;-71
2021/05/24 07:14:54;;;;;;;4.72;1.80;;;;;;;;;;4875071;29;20041;-71
2021/05/24 07:17:21;;;;;;;10.13;2.78;;;;;;;;;;4894529;29;20120;-71
2021/05/24 07:19:58;;;;;;;3.95;1.95;;;;;;;;;;4894860;29;20112;-70
2021/05/24 07:22:24;;;;;;;4.57;2.42;;;;;;;;;;4876374;29;20044;-69
2021/05/24 07:24:57;;;;;;;4.15;2.78;;;;;;;;;;4894035;29;20511;-76
2021/05/24 07:27:23;;;;;;;8.77;3.28;;;;;;;;;;4877837;29;20080;-73
2021/05/24 07:29:51;;;;;;;4.82;2.78;;;;;;;;;;4886730;29;20119;-75
2021/05/24 07:32:17;;;;;;;13.02;7.75;;;;;;;;;;4884692;29;20113;-72
2021/05/24 07:34:43;;;;;;;11.98;4.07;;;;;;;;;;4887076;29;20073;-74
2021/05/24 07:37:09;;;;;;;4.25;2.90;;;;;;;;;;4882973;29;20037;-71
2021/05/24 07:39:36;;;;;;;9.55;3.95;;;;;;;;;;4889407;29;20044;-70
2021/05/24 07:42:02;;;;;;;13.70;4.22;;;;;;;;;;4887446;29;20043;-73
2021/05/24 07:44:29;;;;;;;18.58;8.15;;;;;;;;;;4886632;29;20040;-72
2021/05/24 07:46:56;;;;;;;17.70;4.50;;;;;;;;;;4884923;29;20492;-72
2021/05/24 07:49:22;;;;;;;4.68;2.10;;;;;;;;;;4937350;28;20038;-75
2021/05/24 07:51:51;;;;;;;6.30;3.25;;;;;;;;;;4993615;28;20479;-75
2021/05/24 07:54:18;;;;;;;8.70;3.13;;;;;;;;;;4995107;28;20038;-74
2021/05/24 07:56:44;;;;;;;15.25;3.10;;;;;;;;;;4990111;28;20096;-75
2021/05/24 07:59:11;;;;;;;3.97;2.25;;;;;;;;;;4991146;28;20018;-78
2021/05/24 08:01:37;;;;;;;5.82;3.50;;;;;;;;;;4993095;28;20392;-77
2021/05/24 08:04:03;;;;;;;6.95;3.90;;;;;;;;;;4993860;28;20040;-76
2021/05/24 08:06:30;;;;;;;4.00;1.90;;;;;;;;;;4989264;28;20531;-76
2021/05/24 08:08:57;;;;;;;4.40;2.10;;;;;;;;;;4991506;28;20044;-77
2021/05/24 08:11:33;;;;;;;7.75;2.00;;;;;;;;;;4987348;28;20039;-77
2021/05/24 08:14:00;;;;;;;5.28;2.50;;;;;;;;;;4996037;28;20042;-76
2021/05/24 08:16:54;;;;;;;10.07;2.53;;;;;;;;;;4995346;28;20031;-74
2021/05/24 08:19:34;;;;;;;10.80;2.88;;;;;;;;;;4993753;28;20031;-75
2021/05/24 08:22:04;;;;;;;6.35;2.90;;;;;;;;;;4997712;28;20544;-77
2021/05/24 08:24:31;;;;;;;3.70;1.98;;;;;;;;;;5000273;28;20043;-75
2021/05/24 08:26:58;;;;;;;4.80;2.10;;;;;;;;;;4994154;28;20041;-75
2021/05/24 08:29:25;;;;;;;2.20;1.80;;;;;;;;;;4999305;28;20030;-75
2021/05/24 08:31:54;;;;;;;4.57;1.90;;;;;;;;;;4998760;28;20094;-74
2021/05/24 08:34:23;;;;;;;1.67;1.58;;;;;;;;;;4988417;28;20390;-74
2021/05/24 08:36:49;;;;;;;1.95;1.75;;;;;;;;;;4985501;28;20125;-74
2021/05/24 08:39:16;;;;;;;7.28;1.80;;;;;;;;;;4990977;28;20051;-73
2021/05/24 08:41:42;;;;;;;3.03;1.90;;;;;;;;;;5001900;28;20409;-75
2021/05/24 08:44:09;;;;;;;2.65;1.83;;;;;;;;;;4987609;28;20023;-74
2021/05/24 08:46:36;;;;;;;6.28;2.00;;;;;;;;;;4991468;28;20030;-74
2021/05/24 08:49:02;;;;;;;5.93;2.17;;;;;;;;;;4993128;28;20030;-76
2021/05/24 08:51:28;;;;;;;2.88;1.90;;;;;;;;;;4990893;28;20030;-70
2021/05/24 08:53:54;;;;;;;1.90;1.77;;;;;;;;;;4990963;28;20043;-73
2021/05/24 08:56:20;;;;;;;4.88;1.80;;;;;;;;;;4993390;28;20053;-74
2021/05/24 08:58:46;;;;;;;8.18;2.40;;;;;;;;;;4989797;28;20038;-70
2021/05/24 09:01:12;;;;;;;4.10;2.10;;;;;;;;;;4992416;28;20029;-70
2021/05/24 09:03:41;;;;;;;4.28;2.03;;;;;;;;;;4993237;28;20022;-74
2021/05/24 09:06:09;;;;;;;2.90;1.90;;;;;;;;;;4991282;28;20508;-70
2021/05/24 09:08:40;;;;;;;7.10;2.25;;;;;;;;;;4989654;28;20604;-74
2021/05/24 09:11:06;;;;;;;5.18;2.17;;;;;;;;;;4990941;28;20445;-75
2021/05/24 09:13:34;;;;;;;2.15;1.70;;;;;;;;;;4991289;28;20038;-74
2021/05/24 09:16:00;;;;;;;4.90;2.15;;;;;;;;;;4998452;28;20022;-77
2021/05/24 09:18:27;;;;;;;3.67;1.75;;;;;;;;;;4995564;28;20513;-75
2021/05/24 09:20:54;;;;;;;8.73;2.28;;;;;;;;;;4989585;28;20034;-76
2021/05/24 09:23:21;;;;;;;6.57;2.40;;;;;;;;;;4992996;28;20101;-75
2021/05/24 09:25:58;;;;;;;5.30;2.15;;;;;;;;;;4986699;28;20031;-74
2021/05/24 09:28:32;;;;;;;4.25;2.33;;;;;;;;;;4988109;28;20035;-78
2021/05/24 09:31:00;;;;;;;3.95;2.08;;;;;;;;;;4992809;28;20034;-76
2021/05/24 09:33:26;;;;;;;12.27;2.42;;;;;;;;;;4995202;28;20042;-75
2021/05/24 09:35:52;;;;;;;3.10;2.10;;;;;;;;;;4997576;28;20022;-77
2021/05/24 09:38:25;;;;;;;4.28;1.92;;;;;;;;;;4997537;28;20100;-77
2021/05/24 09:41:01;;;;;;;3.45;2.20;;;;;;;;;;4989516;28;20396;-78
2021/05/24 09:43:34;;;;;;;6.32;2.72;;;;;;;;;;4991915;28;20066;-77
2021/05/24 09:46:19;;;;;;;6.20;2.07;;;;;;;;;;4995142;28;20101;-77
2021/05/24 09:48:46;;;;;;;4.47;2.15;;;;;;;;;;4987873;28;20077;-78
2021/05/24 09:51:14;;;;;;;7.63;2.30;;;;;;;;;;4993727;28;20033;-76
2021/05/24 09:53:41;;;;;;;4.88;2.15;;;;;;;;;;4990293;28;20531;-78
2021/05/24 09:56:29;;;;;;;6.38;2.13;;;;;;;;;;4997143;28;20027;-76
2021/05/24 09:59:14;;;;;;;5.38;2.50;;;;;;;;;;4986108;28;20035;-76
2021/05/24 10:02:14;;;;;;;6.88;2.50;;;;;;;;;;5001674;28;20080;-76
2021/05/24 10:04:45;;;;;;;6.72;2.63;;;;;;;;;;4965271;28;20118;-77
2021/05/24 10:07:11;;;;;;;3.10;2.08;;;;;;;;;;4962738;28;20031;-77
2021/05/24 10:09:37;;;;;;;7.80;2.35;;;;;;;;;;4979941;28;20043;-78
2021/05/24 10:12:22;;;;;;;6.65;2.30;;;;;;;;;;4958800;28;20030;-79
2021/05/24 10:14:48;;;;;;;3.30;1.90;;;;;;;;;;4959279;28;20042;-74
2021/05/24 10:17:14;;;;;;;6.35;2.10;;;;;;;;;;4982892;28;20051;-76
2021/05/24 10:19:41;;;;;;;2.35;2.10;;;;;;;;;;4977405;28;20058;-76
2021/05/24 10:22:14;;;;;;;3.90;2.22;;;;;;;;;;4958037;28;20027;-78
2021/05/24 10:24:40;;;;;;;;;;;;;;;;;;4963137;28;20034;-78
2021/05/24 10:27:06;;;;;;;5.40;2.60;;;;;;;;;;4979272;28;20386;-75
2021/05/24 10:29:38;;;;;;;4.68;2.58;;;;;;;;;;4974977;28;20023;-76
2021/05/24 10:32:07;;;;;;;4.55;2.50;;;;;;;;;;4991366;28;20030;-75
2021/05/24 10:34:37;;;;;;;8.02;2.47;;;;;;;;;;4976625;28;20168;-73
2021/05/24 10:37:11;;;;;;;4.38;2.20;;;;;;;;;;4957135;28;20061;-78
2021/05/24 10:40:01;;;;;;;4.53;2.30;;;;;;;;;;4955969;28;20049;-78
2021/05/24 10:42:42;;;;;;;6.57;2.20;;;;;;;;;;4969537;28;20083;-78
2021/05/24 10:45:17;;;;;;;2.58;1.73;;;;;;;;;;4967867;28;20034;-76
2021/05/24 10:47:53;;;;;;;2.80;2.13;;;;;;;;;;4960319;28;20111;-79
2021/05/24 10:50:20;;;;;;;3.22;2.13;;;;;;;;;;4974076;28;20038;-78
2021/05/24 10:53:15;;;;;;;7.82;2.88;;;;;;;;;;4974032;28;20576;-76
2021/05/24 10:55:44;;;;;;;5.90;3.00;;;;;;;;;;4954077;28;20063;-75
2021/05/24 10:58:42;;;;;;;37.28;29.85;;;;;;;;;;4956048;28;20472;-77
2021/05/24 11:01:08;;;;;;;7.75;3.92;;;;;;;;;;4968954;28;20035;-77
2021/05/24 11:03:34;;;;;;;4.55;3.28;;;;;;;;;;4967047;28;20133;-72
2021/05/24 11:06:16;;;;;;;8.05;2.88;;;;;;;;;;4972962;28;20130;-74
2021/05/24 11:08:50;;;;;;;7.22;3.83;;;;;;;;;;4991400;28;20126;-75
2021/05/24 11:11:18;;;;;;;13.00;9.10;;;;;;;;;;4986636;28;20369;-75
2021/05/24 11:17:00;;;;;;;7.45;2.67;;;;;;;;;;4987887;28;20118;-76
2021/05/24 11:19:27;;;;;;;5.95;2.50;;;;;;;;;;4989548;28;20117;-72
2021/05/24 11:22:13;;;;;;;5.93;4.00;;;;;;;;;;4983176;28;20034;-72
2021/05/24 11:24:42;;;;;;;85.25;76.25;;;;;;;;;;4985326;28;20034;-74
2021/05/24 11:27:16;;;;;;;140.85;110.95;;;;;;;;;;4987037;28;20419;-87
2021/05/24 11:29:59;;;;;;;17.17;7.22;;;;;;;;;;4987382;28;20046;-76
2021/05/24 11:32:42;;;;;;;8.40;7.10;;;;;;;;;;4979667;28;20423;-71
2021/05/24 11:35:26;;;;;;;3.95;2.33;;;;;;;;;;4989512;28;20030;-81
2021/05/24 11:37:52;;;;;;;3.65;2.20;;;;;;;;;;4990561;28;20500;-76
2021/05/24 11:40:20;;;;;;;12.27;10.57;;;;;;;;;;4990331;28;20038;-74
2021/05/24 11:42:48;;;;;;;22.10;3.35;;;;;;;;;;4988628;28;20021;-72
2021/05/24 11:45:21;;;;;;;4.22;2.03;;;;;;;;;;4984676;28;20039;-79
2021/05/24 11:47:55;;;;;;;7.22;2.67;;;;;;;;;;4982054;28;20077;-73
2021/05/24 11:50:23;;;;;;;5.72;2.10;;;;;;;;;;5006662;28;20030;-73
2021/05/24 11:53:46;;;;;;;12.20;3.78;;;;;;;;;;4988760;28;20495;-76
2021/05/24 11:56:13;;;;;;;26.27;7.28;;;;;;;;;;4946398;28;20031;-73
2021/05/24 11:59:00;;;;;;;7.85;3.13;;;;;;;;;;4942961;28;20039;-75
2021/05/24 12:01:32;;;;;;;9.32;3.88;;;;;;;;;;4951621;28;20035;-71
2021/05/24 12:04:11;;;;;;;6.72;2.30;;;;;;;;;;4948425;29;20066;-73
2021/05/24 12:06:47;;;;;;;3.42;2.10;;;;;;;;;;4950310;28;20044;-74
2021/05/24 12:09:15;;;;;;;3.30;2.22;;;;;;;;;;4958554;28;20034;-73
2021/05/24 12:12:02;;;;;;;27.20;12.70;;;;;;;;;;4939183;29;20158;-75
2021/05/24 12:14:33;;;;;;;6.30;3.72;;;;;;;;;;4952956;29;20054;-75
2021/05/24 12:17:08;;;;;;;28.67;15.05;;;;;;;;;;4955898;29;20445;-78
2021/05/24 12:19:35;;;;;;;4.00;1.90;;;;;;;;;;4959420;28;20480;-76
2021/05/24 12:22:06;;;;;;;2.92;1.98;;;;;;;;;;4957231;28;20031;-76
2021/05/24 12:24:36;;;;;;;2.50;1.65;;;;;;;;;;4952146;28;20031;-76
2021/05/24 12:27:03;;;;;;;4.53;2.03;;;;;;;;;;4953980;29;20041;-75
2021/05/24 12:29:33;;;;;;;4.53;2.17;;;;;;;;;;4948480;28;20118;-75
2021/05/24 12:32:01;;;;;;;4.57;2.92;;;;;;;;;;4962023;28;20035;-76
2021/05/24 12:34:47;;;;;;;7.25;5.43;;;;;;;;;;4983980;28;20049;-74
2021/05/24 12:37:14;;;;;;;3.03;2.50;;;;;;;;;;4985523;28;20026;-74
2021/05/24 12:39:43;;;;;;;10.13;2.75;;;;;;;;;;4993880;28;20038;-73
2021/05/24 12:42:12;;;;;;;5.18;2.80;;;;;;;;;;4989772;28;20027;-76
2021/05/24 12:44:38;;;;;;;7.05;2.40;;;;;;;;;;4987147;28;20122;-75
2021/05/24 12:47:20;;;;;;;11.77;2.10;;;;;;;;;;4991106;28;20054;-77
2021/05/24 12:49:48;;;;;;;3.20;1.42;;;;;;;;;;4998651;28;20034;-77
2021/05/24 12:52:15;;;;;;;5.60;1.80;;;;;;;;;;4986684;28;20022;-76
2021/05/24 12:54:41;;;;;;;1.60;1.38;;;;;;;;;;4991962;28;20038;-76
2021/05/24 12:57:07;;;;;;;5.55;1.80;;;;;;;;;;4990839;28;20081;-75
2021/05/24 12:59:43;;;;;;;3.15;1.90;;;;;;;;;;4991013;28;20080;-75
2021/05/24 13:02:11;;;;;;;9.23;1.90;;;;;;;;;;4993809;28;20477;-76
2021/05/24 13:04:40;;;;;;;5.03;1.80;;;;;;;;;;4997784;28;20029;-76
2021/05/24 13:07:13;;;;;;;3.22;1.90;;;;;;;;;;4984610;28;20045;-74
2021/05/24 13:09:42;;;;;;;1.70;1.50;;;;;;;;;;4994614;28;20026;-76
2021/05/24 13:12:16;;;;;;;3.17;1.80;;;;;;;;;;4996127;28;20149;-75
2021/05/24 13:14:50;;;;;;;3.40;1.83;;;;;;;;;;4995221;28;20053;-75
2021/05/24 13:17:34;;;;;;;5.93;2.47;;;;;;;;;;4964463;28;21329;-79
2021/05/24 13:20:12;;;;;;;6.95;2.13;;;;;;;;;;4989141;28;20465;-75
2021/05/24 13:30:49;;;;;;;3.03;1.90;;;;;;;;;;4974797;28;20440;-78
2021/05/24 13:33:27;;;;;;;2.75;2.03;;;;;;;;;;4978180;28;20121;-74
2021/05/24 13:35:53;;;;;;;5.13;2.40;;;;;;;;;;4977928;28;20035;-78
2021/05/24 13:38:29;;;;;;;4.95;2.10;;;;;;;;;;4975034;28;20058;-79
2021/05/24 13:41:02;;;;;;;3.45;2.10;;;;;;;;;;4965063;28;20090;-74
2021/05/24 13:43:28;;;;;;;2.97;2.08;;;;;;;;;;4979260;28;20035;-75
2021/05/24 13:45:54;;;;;;;4.97;2.20;;;;;;;;;;4957738;28;20023;-78
2021/05/24 13:48:20;;;;;;;2.83;1.63;;;;;;;;;;4977177;28;20051;-72
2021/05/24 13:50:46;;;;;;;5.03;3.10;;;;;;;;;;4986112;28;20605;-79
2021/05/24 13:53:13;;;;;;;4.32;2.50;;;;;;;;;;4977930;28;20055;-73
2021/05/24 13:55:39;;;;;;;6.20;2.97;;;;;;;;;;4975172;28;20527;-80
2021/05/24 13:58:05;;;;;;;5.32;2.28;;;;;;;;;;4956956;28;20082;-77
2021/05/24 14:00:31;;;;;;;5.43;2.20;;;;;;;;;;4978802;28;20245;-71
2021/05/24 14:03:00;;;;;;;2.85;2.00;;;;;;;;;;4973553;28;20102;-78
2021/05/24 14:05:26;;;;;;;5.15;1.90;;;;;;;;;;4971987;28;20030;-82
2021/05/24 14:07:52;;;;;;;5.40;1.90;;;;;;;;;;4984764;28;20038;-83
2021/05/24 14:10:21;;;;;;;4.97;1.70;;;;;;;;;;4992519;28;20108;-78
2021/05/24 14:12:48;;;;;;;4.20;1.92;;;;;;;;;;4991988;28;20383;-69
2021/05/24 14:15:15;;;;;;;3.53;2.10;;;;;;;;;;4994237;28;20019;-80
2021/05/24 14:17:42;;;;;;;4.65;2.40;;;;;;;;;;4991350;28;20113;-73
2021/05/24 14:20:09;;;;;;;5.65;2.00;;;;;;;;;;4993198;28;20057;-80